createdAt,value
2022-12-25T00:02:27.218Z,1.76
2022-12-25T00:04:58.760Z,1.72
2022-12-25T00:07:29.918Z,1.70
2022-12-25T00:09:59.830Z,1.70
2022-12-25T00:12:30.968Z,1.68
2022-12-25T00:15:02.059Z,1.66
2022-12-25T00:17:33.424Z,1.60
2022-12-25T00:20:05.021Z,1.52
2022-12-25T00:22:36.146Z,1.48
2022-12-25T00:25:08.370Z,1.47
2022-12-25T00:27:39.576Z,1.48
2022-12-25T00:30:12.614Z,1.49
2022-12-25T00:32:43.564Z,1.51
2022-12-25T00:35:14.644Z,1.53
2022-12-25T00:37:45.617Z,1.55
2022-12-25T00:40:17.124Z,1.55
2022-12-25T00:42:46.496Z,1.56
2022-12-25T00:45:17.889Z,1.55
2022-12-25T00:47:49.039Z,1.53
2022-12-25T00:50:20.443Z,1.53
2022-12-25T00:52:51.834Z,1.51
2022-12-25T00:55:23.181Z,1.40
2022-12-25T00:57:54.174Z,1.33
2022-12-25T01:00:25.282Z,1.32
2022-12-25T01:02:54.972Z,1.31
2022-12-25T01:05:26.290Z,1.30
2022-12-25T01:07:57.630Z,1.30
2022-12-25T01:10:28.839Z,1.32
2022-12-25T01:12:59.993Z,1.32
2022-12-25T01:15:31.283Z,1.32
2022-12-25T01:18:07.639Z,1.30
2022-12-25T01:20:39.068Z,1.26
2022-12-25T01:23:10.347Z,1.24
2022-12-25T01:25:41.665Z,1.20
2022-12-25T01:28:12.598Z,1.17
2022-12-25T01:30:50.762Z,1.15
2022-12-25T01:33:22.158Z,1.13
2022-12-25T01:35:53.477Z,1.12
2022-12-25T01:38:24.483Z,1.09
2022-12-25T01:40:56.114Z,1.06
2022-12-25T01:43:29.820Z,1.02
2022-12-25T01:46:03.983Z,1.00
2022-12-25T01:48:38.434Z,0.99
2022-12-25T01:51:17.407Z,0.98
2022-12-25T01:53:48.694Z,0.97
2022-12-25T01:56:19.810Z,0.98
2022-12-25T01:58:50.857Z,0.97
2022-12-25T02:01:22.428Z,0.98
2022-12-25T02:03:59.600Z,0.99
2022-12-25T02:06:30.792Z,0.95
2022-12-25T02:09:02.459Z,0.93
2022-12-25T02:11:51.245Z,0.92
2022-12-25T02:14:22.721Z,0.90
2022-12-25T02:17:03.254Z,0.88
2022-12-25T02:20:03.687Z,0.83
2022-12-25T02:22:48.749Z,0.79
2022-12-25T02:25:37.599Z,0.80
2022-12-25T02:28:21.113Z,0.82
2022-12-25T02:31:00.548Z,0.82
2022-12-25T02:33:54.306Z,0.82
2022-12-25T02:36:40.571Z,0.82
2022-12-25T02:39:35.428Z,0.82
2022-12-25T02:42:11.961Z,0.80
2022-12-25T02:45:03.055Z,0.75
2022-12-25T02:47:49.966Z,0.74
2022-12-25T02:50:40.049Z,0.75
2022-12-25T02:53:30.085Z,0.74
2022-12-25T02:56:33.977Z,0.74
2022-12-25T02:59:23.640Z,0.75
2022-12-25T03:02:13.536Z,0.79
2022-12-25T03:05:03.358Z,0.83
2022-12-25T03:07:38.637Z,0.86
2022-12-25T03:10:32.813Z,0.88
2022-12-25T03:13:11.069Z,0.92
2022-12-25T03:15:59.670Z,0.96
2022-12-25T03:18:33.717Z,1.00
2022-12-25T03:21:22.576Z,1.03
2022-12-25T03:24:17.406Z,1.06
2022-12-25T03:26:57.743Z,1.09
2022-12-25T03:29:50.319Z,1.10
2022-12-25T03:32:40.362Z,1.07
2022-12-25T03:35:25.585Z,1.03
2022-12-25T03:38:30.729Z,0.95
2022-12-25T03:41:36.739Z,0.89
2022-12-25T03:44:47.196Z,0.89
2022-12-25T03:47:47.893Z,0.89
2022-12-25T03:50:42.403Z,0.89
2022-12-25T03:53:37.024Z,0.84
2022-12-25T03:56:26.108Z,0.83
2022-12-25T03:59:23.180Z,0.86
2022-12-25T04:02:12.572Z,0.93
2022-12-25T04:05:15.854Z,1.01
2022-12-25T04:08:04.809Z,1.07
2022-12-25T04:10:52.635Z,1.12
2022-12-25T04:13:41.102Z,1.18
2022-12-25T04:16:29.489Z,1.24
2022-12-25T04:19:18.364Z,1.28
2022-12-25T04:22:07.184Z,1.33
2022-12-25T04:24:55.782Z,1.37
2022-12-25T04:27:44.568Z,1.40
2022-12-25T04:30:33.515Z,1.44
2022-12-25T04:33:22.077Z,1.47
2022-12-25T04:36:11.739Z,1.51
2022-12-25T04:38:43.395Z,1.54
2022-12-25T04:41:15.684Z,1.58
2022-12-25T04:43:46.703Z,1.61
2022-12-25T04:46:18.136Z,1.62
2022-12-25T04:48:49.480Z,1.62
2022-12-25T04:51:20.051Z,1.60
2022-12-25T04:53:52.671Z,1.59
2022-12-25T04:56:24.176Z,1.59
2022-12-25T04:58:53.862Z,1.61
2022-12-25T05:01:25.288Z,1.60
2022-12-25T05:03:56.489Z,1.60
2022-12-25T05:06:27.454Z,1.58
2022-12-25T05:08:58.765Z,1.58
2022-12-25T05:11:29.921Z,1.59
2022-12-25T05:14:01.172Z,1.56
2022-12-25T05:16:32.728Z,1.55
2022-12-25T05:19:02.374Z,1.52
2022-12-25T05:21:33.398Z,1.43
2022-12-25T05:24:04.355Z,1.36
2022-12-25T05:26:35.457Z,1.33
2022-12-25T05:29:06.559Z,1.34
2022-12-25T05:31:37.720Z,1.34
2022-12-25T05:34:08.836Z,1.30
2022-12-25T05:36:41.161Z,1.27
2022-12-25T05:39:12.394Z,1.24
2022-12-25T05:41:43.551Z,1.23
2022-12-25T05:44:14.444Z,1.25
2022-12-25T05:46:45.830Z,1.28
2022-12-25T05:49:17.135Z,1.29
2022-12-25T05:51:48.122Z,1.35
2022-12-25T05:54:19.094Z,1.39
2022-12-25T05:56:50.129Z,1.43
2022-12-25T05:59:21.004Z,1.45
2022-12-25T06:01:52.143Z,1.46
2022-12-25T06:04:23.067Z,1.46
2022-12-25T06:06:54.446Z,1.46
2022-12-25T06:09:23.986Z,1.47
2022-12-25T06:11:54.865Z,1.47
2022-12-25T06:14:26.305Z,1.47
2022-12-25T06:16:57.560Z,1.46
2022-12-25T06:19:27.186Z,1.46
2022-12-25T06:21:58.421Z,1.43
2022-12-25T06:24:29.801Z,1.44
2022-12-25T06:27:01.186Z,1.47
2022-12-25T06:29:32.412Z,1.52
2022-12-25T06:32:03.564Z,1.54
2022-12-25T06:34:34.879Z,1.55
2022-12-25T06:37:06.263Z,1.57
2022-12-25T06:39:37.366Z,1.55
2022-12-25T06:42:08.663Z,1.53
2022-12-25T06:44:40.737Z,1.52
2022-12-25T06:47:12.045Z,1.53
2022-12-25T06:49:42.999Z,1.55
2022-12-25T06:52:14.413Z,1.55
2022-12-25T06:54:45.611Z,1.54
2022-12-25T06:57:16.099Z,1.53
2022-12-25T06:59:51.352Z,1.53
2022-12-25T07:02:27.421Z,1.56
2022-12-25T07:04:59.110Z,1.59
2022-12-25T07:07:28.483Z,1.63
2022-12-25T07:09:59.501Z,1.65
2022-12-25T07:12:31.032Z,1.66
2022-12-25T07:15:02.136Z,1.65
2022-12-25T07:17:35.685Z,1.62
2022-12-25T07:20:08.106Z,1.59
2022-12-25T07:22:39.085Z,1.56
2022-12-25T07:25:10.988Z,1.55
2022-12-25T07:27:42.561Z,1.54
2022-12-25T07:30:15.432Z,1.53
2022-12-25T07:32:50.109Z,1.51
2022-12-25T07:35:21.731Z,1.52
2022-12-25T07:37:52.985Z,1.54
2022-12-25T07:40:23.800Z,1.55
2022-12-25T07:42:54.857Z,1.57
2022-12-25T07:45:25.783Z,1.57
2022-12-25T07:47:59.958Z,1.57
2022-12-25T07:50:35.828Z,1.57
2022-12-25T07:53:07.138Z,1.60
2022-12-25T07:55:38.584Z,1.63
2022-12-25T07:58:09.728Z,1.66
2022-12-25T08:00:40.853Z,1.67
2022-12-25T08:03:12.434Z,1.66
2022-12-25T08:05:43.898Z,1.67
2022-12-25T08:08:15.112Z,1.72
2022-12-25T08:10:49.662Z,1.78
2022-12-25T08:13:20.827Z,1.83
2022-12-25T08:15:51.882Z,1.83
2022-12-25T08:18:29.392Z,1.83
2022-12-25T08:21:05.139Z,1.84
2022-12-25T08:23:38.603Z,1.85
2022-12-25T08:26:11.949Z,1.89
2022-12-25T08:28:43.251Z,1.94
2022-12-25T08:31:18.192Z,1.95
2022-12-25T08:33:50.638Z,1.98
2022-12-25T08:36:22.378Z,2.02
2022-12-25T08:39:00.396Z,2.07
2022-12-25T08:41:36.634Z,2.13
2022-12-25T08:44:08.372Z,2.20
2022-12-25T08:46:39.977Z,2.25
2022-12-25T08:49:11.388Z,2.31
2022-12-25T08:51:42.451Z,2.37
2022-12-25T08:54:13.509Z,2.40
2022-12-25T08:56:44.734Z,2.42
2022-12-25T08:59:14.219Z,2.43
2022-12-25T09:01:45.609Z,2.44
2022-12-25T09:04:17.218Z,2.46
2022-12-25T09:06:48.496Z,2.47
2022-12-25T09:09:17.850Z,2.51
2022-12-25T09:11:50.066Z,2.54
2022-12-25T09:14:21.105Z,2.58
2022-12-25T09:16:53.717Z,2.64
2022-12-25T09:19:24.898Z,2.69
2022-12-25T09:21:56.039Z,2.74
2022-12-25T09:24:27.126Z,2.80
2022-12-25T09:26:58.147Z,2.86
2022-12-25T09:29:27.890Z,2.91
2022-12-25T09:31:58.987Z,2.93
2022-12-25T09:34:30.226Z,2.95
2022-12-25T09:37:01.505Z,2.99
2022-12-25T09:39:30.921Z,3.01
2022-12-25T09:42:06.653Z,3.02
2022-12-25T09:44:41.620Z,3.05
2022-12-25T09:47:17.139Z,3.11
2022-12-25T09:49:55.351Z,3.19
2022-12-25T09:52:31.521Z,3.24
2022-12-25T09:55:14.729Z,3.34
2022-12-25T09:57:53.862Z,3.40
2022-12-25T10:00:29.285Z,3.45
2022-12-25T10:03:18.265Z,3.50
2022-12-25T10:06:09.091Z,3.57
2022-12-25T10:08:54.545Z,3.66
2022-12-25T10:11:39.382Z,3.76
2022-12-25T10:14:23.174Z,3.85
2022-12-25T10:17:07.214Z,3.91
2022-12-25T10:19:50.149Z,3.96
2022-12-25T10:22:27.821Z,4.02
2022-12-25T10:25:01.036Z,4.07
2022-12-25T10:27:37.750Z,4.13
2022-12-25T10:30:17.977Z,4.14
2022-12-25T10:32:50.535Z,4.13
2022-12-25T10:35:25.544Z,4.16
2022-12-25T10:38:01.542Z,4.22
2022-12-25T10:40:42.016Z,4.29
2022-12-25T10:43:17.136Z,4.35
2022-12-25T10:45:50.440Z,4.42
2022-12-25T10:48:27.673Z,4.45
2022-12-25T10:50:59.181Z,4.48
2022-12-25T10:53:38.600Z,4.48
2022-12-25T10:56:17.963Z,4.50
2022-12-25T10:58:48.902Z,4.51
2022-12-25T11:01:20.187Z,4.55
2022-12-25T11:03:54.626Z,4.58
2022-12-25T11:06:27.908Z,4.58
2022-12-25T11:09:00.591Z,4.57
2022-12-25T11:11:32.874Z,4.59
2022-12-25T11:14:04.865Z,4.65
2022-12-25T11:16:40.069Z,4.70
2022-12-25T11:19:27.431Z,4.76
2022-12-25T11:21:59.890Z,4.83
2022-12-25T11:24:32.317Z,4.90
2022-12-25T11:27:07.198Z,4.97
2022-12-25T11:29:44.598Z,5.04
2022-12-25T11:32:17.424Z,5.12
2022-12-25T11:34:50.266Z,5.18
2022-12-25T11:37:26.390Z,5.26
2022-12-25T11:39:57.731Z,5.32
2022-12-25T11:42:32.463Z,5.38
2022-12-25T11:45:09.137Z,5.41
2022-12-25T11:47:45.278Z,5.44
2022-12-25T11:50:26.411Z,5.44
2022-12-25T11:53:00.216Z,5.44
2022-12-25T11:55:37.396Z,5.44
2022-12-25T11:58:17.165Z,5.46
2022-12-25T12:00:50.969Z,5.47
2022-12-25T12:03:27.385Z,5.46
2022-12-25T12:06:03.597Z,5.48
2022-12-25T12:08:36.576Z,5.47
2022-12-25T12:11:18.092Z,5.48
2022-12-25T12:14:06.827Z,5.50
2022-12-25T12:16:38.589Z,5.51
2022-12-25T12:19:29.288Z,5.52
2022-12-25T12:22:03.813Z,5.56
2022-12-25T12:24:40.298Z,5.55
2022-12-25T12:27:28.164Z,5.56
2022-12-25T12:30:00.971Z,5.57
2022-12-25T12:32:40.699Z,5.57
2022-12-25T12:35:20.079Z,5.57
2022-12-25T12:37:56.745Z,5.56
2022-12-25T12:40:33.673Z,5.56
2022-12-25T12:43:06.095Z,5.55
2022-12-25T12:45:39.191Z,5.57
2022-12-25T12:48:26.131Z,5.61
2022-12-25T12:51:06.389Z,5.66
2022-12-25T12:53:39.975Z,5.70
2022-12-25T12:56:17.533Z,5.69
2022-12-25T12:58:51.326Z,5.66
2022-12-25T13:01:46.128Z,5.65
2022-12-25T13:04:49.372Z,5.62
2022-12-25T13:07:36.085Z,5.62
2022-12-25T13:10:20.008Z,5.66
2022-12-25T13:12:57.733Z,5.72
2022-12-25T13:15:34.217Z,5.81
2022-12-25T13:18:07.962Z,5.89
2022-12-25T13:20:46.201Z,5.98
2022-12-25T13:23:26.162Z,6.04
2022-12-25T13:25:59.301Z,6.08
2022-12-25T13:28:33.493Z,6.09
2022-12-25T13:31:15.132Z,6.10
2022-12-25T13:33:50.152Z,6.14
2022-12-25T13:36:21.327Z,6.17
2022-12-25T13:38:55.190Z,6.20
2022-12-25T13:41:46.382Z,6.23
2022-12-25T13:44:22.522Z,6.28
2022-12-25T13:46:53.955Z,6.32
2022-12-25T13:49:26.208Z,6.31
2022-12-25T13:52:13.408Z,6.29
2022-12-25T13:54:55.830Z,6.26
2022-12-25T13:57:31.574Z,6.25
2022-12-25T14:00:02.808Z,6.25
2022-12-25T14:02:38.321Z,6.26
2022-12-25T14:05:27.969Z,6.26
2022-12-25T14:08:02.539Z,6.24
2022-12-25T14:10:38.981Z,6.21
2022-12-25T14:13:13.847Z,6.17
2022-12-25T14:15:47.987Z,6.11
2022-12-25T14:18:21.696Z,6.06
2022-12-25T14:21:02.388Z,6.02
2022-12-25T14:23:42.973Z,5.98
2022-12-25T14:26:20.195Z,5.95
2022-12-25T14:28:51.575Z,5.90
2022-12-25T14:31:24.824Z,5.80
2022-12-25T14:33:56.164Z,5.73
2022-12-25T14:36:27.289Z,5.65
2022-12-25T14:39:03.350Z,5.57
2022-12-25T14:41:38.764Z,5.51
2022-12-25T14:44:38.672Z,5.43
2022-12-25T14:47:18.689Z,5.37
2022-12-25T14:49:51.140Z,5.32
2022-12-25T14:52:26.443Z,5.29
2022-12-25T14:55:01.584Z,5.24
2022-12-25T14:57:38.457Z,5.19
2022-12-25T15:00:22.143Z,5.12
2022-12-25T15:02:55.736Z,5.10
2022-12-25T15:05:32.994Z,5.06
2022-12-25T15:08:24.978Z,5.01
2022-12-25T15:11:01.225Z,4.95
2022-12-25T15:13:32.394Z,4.87
2022-12-25T15:16:10.428Z,4.79
2022-12-25T15:18:44.529Z,4.72
2022-12-25T15:21:19.018Z,4.69
2022-12-25T15:23:50.168Z,4.68
2022-12-25T15:26:19.525Z,4.68
2022-12-25T15:28:50.691Z,4.65
2022-12-25T15:31:25.124Z,4.65
2022-12-25T15:33:57.510Z,4.66
2022-12-25T15:36:29.465Z,4.65
2022-12-25T15:39:00.753Z,4.65
2022-12-25T15:41:54.622Z,4.62
2022-12-25T15:44:26.671Z,4.59
2022-12-25T15:46:57.923Z,4.52
2022-12-25T15:49:27.185Z,4.39
2022-12-25T15:51:58.237Z,4.27
2022-12-25T15:54:29.207Z,4.23
2022-12-25T15:57:03.241Z,4.22
2022-12-25T15:59:34.627Z,4.20
2022-12-25T16:02:14.441Z,4.18
2022-12-25T16:04:46.209Z,4.17
2022-12-25T16:07:19.855Z,4.16
2022-12-25T16:09:51.114Z,4.13
2022-12-25T16:12:21.008Z,4.11
2022-12-25T16:14:50.611Z,4.06
2022-12-25T16:17:21.779Z,4.03
2022-12-25T16:19:52.669Z,3.99
2022-12-25T16:22:26.658Z,3.93
2022-12-25T16:24:57.818Z,3.86
2022-12-25T16:27:28.713Z,3.83
2022-12-25T16:29:59.734Z,3.81
2022-12-25T16:32:30.769Z,3.82
2022-12-25T16:35:00.377Z,3.83
2022-12-25T16:37:31.675Z,3.81
2022-12-25T16:40:02.656Z,3.82
2022-12-25T16:42:34.549Z,3.81
2022-12-25T16:45:06.641Z,3.81
2022-12-25T16:47:37.742Z,3.81
2022-12-25T16:50:11.242Z,3.77
2022-12-25T16:52:42.394Z,3.73
2022-12-25T16:55:13.755Z,3.72
2022-12-25T16:57:43.288Z,3.72
2022-12-25T17:00:16.273Z,3.70
2022-12-25T17:02:47.806Z,3.72
2022-12-25T17:05:19.216Z,3.73
2022-12-25T17:07:50.399Z,3.75
2022-12-25T17:10:22.626Z,3.76
2022-12-25T17:12:53.813Z,3.75
2022-12-25T17:15:23.309Z,3.72
2022-12-25T17:17:54.314Z,3.67
2022-12-25T17:20:25.333Z,3.61
2022-12-25T17:22:57.747Z,3.53
2022-12-25T17:25:28.842Z,3.48
2022-12-25T17:28:00.074Z,3.44
2022-12-25T17:30:29.517Z,3.41
2022-12-25T17:33:00.565Z,3.35
2022-12-25T17:35:32.044Z,3.34
2022-12-25T17:38:03.344Z,3.32
2022-12-25T17:40:34.322Z,3.31
2022-12-25T17:43:05.455Z,3.30
2022-12-25T17:45:38.915Z,3.28
2022-12-25T17:48:09.957Z,3.23
2022-12-25T17:50:41.810Z,3.20
2022-12-25T17:53:13.181Z,3.18
2022-12-25T17:55:42.782Z,3.18
2022-12-25T17:58:13.767Z,3.14
2022-12-25T18:00:43.341Z,3.12
2022-12-25T18:03:14.695Z,3.10
2022-12-25T18:05:46.836Z,3.03
2022-12-25T18:08:17.949Z,2.86
2022-12-25T18:10:49.334Z,2.75
2022-12-25T18:13:20.416Z,2.72
2022-12-25T18:15:51.862Z,2.71
2022-12-25T18:18:23.115Z,2.70
2022-12-25T18:20:54.065Z,2.69
2022-12-25T18:23:25.135Z,2.68
2022-12-25T18:25:56.512Z,2.70
2022-12-25T18:28:26.071Z,2.71
2022-12-25T18:30:56.951Z,2.72
2022-12-25T18:33:28.540Z,2.73
2022-12-25T18:36:02.513Z,2.75
2022-12-25T18:38:33.980Z,2.78
2022-12-25T18:41:07.928Z,2.80
2022-12-25T18:43:53.847Z,2.82
2022-12-25T18:46:27.856Z,2.83
2022-12-25T18:48:59.436Z,2.83
2022-12-25T18:51:36.643Z,2.85
2022-12-25T18:54:08.493Z,2.88
2022-12-25T18:56:39.595Z,2.90
2022-12-25T18:59:09.061Z,2.91
2022-12-25T19:01:40.363Z,2.91
2022-12-25T19:04:12.871Z,2.95
2022-12-25T19:06:44.089Z,3.00
2022-12-25T19:09:15.383Z,3.02
2022-12-25T19:11:47.060Z,3.02
2022-12-25T19:14:19.207Z,3.04
2022-12-25T19:16:52.182Z,3.04
2022-12-25T19:19:24.090Z,3.04
2022-12-25T19:21:56.731Z,3.04
2022-12-25T19:24:27.854Z,3.06
2022-12-25T19:26:59.348Z,3.09
2022-12-25T19:29:30.220Z,3.10
2022-12-25T19:32:01.778Z,3.12
2022-12-25T19:34:33.202Z,3.11
2022-12-25T19:37:04.803Z,3.06
2022-12-25T19:39:35.902Z,3.01
2022-12-25T19:42:05.501Z,3.02
2022-12-25T19:44:36.511Z,3.01
2022-12-25T19:47:07.741Z,3.02
2022-12-25T19:49:40.677Z,3.04
2022-12-25T19:52:12.106Z,3.08
2022-12-25T19:54:41.625Z,3.10
2022-12-25T19:57:12.573Z,3.08
2022-12-25T19:59:44.006Z,3.06
2022-12-25T20:02:14.976Z,3.03
2022-12-25T20:04:44.433Z,3.02
2022-12-25T20:07:15.575Z,2.98
2022-12-25T20:09:46.576Z,2.96
2022-12-25T20:12:17.520Z,2.95
2022-12-25T20:14:49.389Z,2.95
2022-12-25T20:17:20.424Z,2.94
2022-12-25T20:19:51.496Z,2.93
2022-12-25T20:22:21.180Z,2.91
2022-12-25T20:24:52.157Z,2.89
2022-12-25T20:27:23.419Z,2.86
2022-12-25T20:29:54.571Z,2.81
2022-12-25T20:32:25.767Z,2.78
2022-12-25T20:34:56.883Z,2.76
2022-12-25T20:37:28.455Z,2.76
2022-12-25T20:39:59.470Z,2.78
2022-12-25T20:42:30.774Z,2.77
2022-12-25T20:45:01.620Z,2.77
2022-12-25T20:47:33.681Z,2.77
2022-12-25T20:50:05.155Z,2.78
2022-12-25T20:52:36.460Z,2.80
2022-12-25T20:55:08.415Z,2.80
2022-12-25T20:57:39.497Z,2.82
2022-12-25T21:00:12.845Z,2.83
2022-12-25T21:02:44.400Z,2.84
2022-12-25T21:05:15.697Z,2.84
2022-12-25T21:07:45.527Z,2.80
2022-12-25T21:10:16.844Z,2.74
2022-12-25T21:12:47.875Z,2.73
2022-12-25T21:15:19.133Z,2.72
2022-12-25T21:17:48.614Z,2.72
2022-12-25T21:20:19.932Z,2.71
2022-12-25T21:22:51.169Z,2.73
2022-12-25T21:25:20.556Z,2.74
2022-12-25T21:27:51.624Z,2.72
2022-12-25T21:30:21.089Z,2.73
2022-12-25T21:33:16.952Z,2.72
2022-12-25T21:35:48.369Z,2.73
2022-12-25T21:38:19.374Z,2.74
2022-12-25T21:40:50.471Z,2.75
2022-12-25T21:43:21.902Z,2.76
2022-12-25T21:45:52.979Z,2.76
2022-12-25T21:48:24.037Z,2.75
2022-12-25T21:51:12.872Z,2.74
2022-12-25T21:53:44.059Z,2.71
2022-12-25T21:56:14.933Z,2.71
2022-12-25T21:58:47.305Z,2.71
2022-12-25T22:01:18.415Z,2.71
2022-12-25T22:03:47.933Z,2.69
2022-12-25T22:06:36.804Z,2.67
2022-12-25T22:09:09.904Z,2.64
2022-12-25T22:11:58.478Z,2.62
2022-12-25T22:14:52.904Z,2.58
2022-12-25T22:17:43.572Z,2.54
2022-12-25T22:20:16.818Z,2.52
2022-12-25T22:22:49.340Z,2.53
2022-12-25T22:25:21.444Z,2.54
2022-12-25T22:27:52.993Z,2.55
2022-12-25T22:30:26.826Z,2.56
2022-12-25T22:32:58.054Z,2.55
2022-12-25T22:35:27.480Z,2.56
2022-12-25T22:37:58.902Z,2.53
2022-12-25T22:40:30.152Z,2.52
2022-12-25T22:43:01.029Z,2.51
2022-12-25T22:45:32.148Z,2.48
2022-12-25T22:48:03.071Z,2.44
2022-12-25T22:50:34.201Z,2.40
2022-12-25T22:53:05.207Z,2.38
2022-12-25T22:55:36.225Z,2.37
2022-12-25T22:58:07.369Z,2.37
2022-12-25T23:00:42.591Z,2.37
2022-12-25T23:03:17.206Z,2.34
2022-12-25T23:05:53.942Z,2.33
2022-12-25T23:08:25.419Z,2.32
2022-12-25T23:10:56.502Z,2.33
2022-12-25T23:13:45.109Z,2.34
2022-12-25T23:16:18.180Z,2.34
2022-12-25T23:19:06.746Z,2.29
2022-12-25T23:21:55.828Z,2.22
2022-12-25T23:24:44.743Z,2.12
2022-12-25T23:27:15.826Z,2.11
2022-12-25T23:29:46.929Z,2.12
2022-12-25T23:32:24.969Z,2.15
2022-12-25T23:34:56.781Z,2.18
2022-12-25T23:37:27.890Z,2.21
2022-12-25T23:40:02.430Z,2.24
2022-12-25T23:42:33.496Z,2.26
2022-12-25T23:45:05.078Z,2.26
2022-12-25T23:47:36.627Z,2.24
2022-12-25T23:50:08.635Z,2.20
2022-12-25T23:52:39.886Z,2.13
2022-12-25T23:55:11.984Z,2.08
2022-12-25T23:57:43.133Z,2.00
